KABR

Aberdeen Regional Airport

Aberdeen, South Dakota, USA
KABR 221914Z 2219/2318 15011KT P6SM OVC060 FM230000 17009KT P6SM SCT050 BKN060 FM230200 VRB04KT P6SM VCTS SCT060CB BKN200 FM230400 VRB04KT P6SM SCT035 BKN080
Issued Valid From Valid To
Jul-22 @ 19:14 UTC
(54 minutes ago)
Jul-22 @ 19:00 UTC
(an hour ago)
Jul-23 @ 18:00 UTC
(in 22 hours)
Jul-22 @ 19:00 to Jul-23 @ 00:00
KABR 221914Z 2219/2318 15011KT P6SM OVC060
Wind Visibility Clouds
150° at 11 knots Greater than 6 miles
  • Overcast at 6,000' AGL
From Jul-23 @ 00:00 to Jul-23 @ 02:00
FM230000 17009KT P6SM SCT050 BKN060
Wind Visibility Clouds
170° at 9 knots Greater than 6 miles
  • Scattered at 5,000' AGL
  • Broken at 6,000' AGL
From Jul-23 @ 02:00 to Jul-23 @ 04:00
FM230200 VRB04KT P6SM VCTS SCT060CB BKN200
Wind Visibility Clouds Conditions
Variable at 4 knots Greater than 6 miles
  • Scattered at 6,000' AGL
  • Broken at 20,000' AGL
  • Area Thunderstorm
From Jul-23 @ 04:00 to Jul-23 @ 18:00
FM230400 VRB04KT P6SM SCT035 BKN080
Wind Visibility Clouds
Variable at 4 knots Greater than 6 miles
  • Scattered at 3,500' AGL
  • Broken at 8,000' AGL
KABR 221914Z 2219/2318 15011KT P6SM OVC060 FM230000 17009KT P6SM SCT050 BKN060 FM230200 VRB04KT P6SM VCTS SCT060CB BKN200 FM230400 VRB04KT P6SM SCT035 BKN080
Issued Jul-22 @ 19:14 UTC
(54 minutes ago)
Valid From Jul-22 @ 19:00 UTC
(an hour ago)
Valid To Jul-23 @ 18:00 UTC
(in 22 hours)
Jul-22 @ 19:00 - Jul-23 @ 00:00
Wind Visibility
150° at 11 knots Greater than 6 miles
Clouds
  • Overcast at 6,000' AGL
From Jul-23 @ 00:00 - Jul-23 @ 02:00
Wind Visibility
170° at 9 knots Greater than 6 miles
Clouds
  • Scattered at 5,000' AGL
  • Broken at 6,000' AGL
From Jul-23 @ 02:00 - Jul-23 @ 04:00
Wind Visibility
Variable at 4 knots Greater than 6 miles
Clouds
  • Scattered at 6,000' AGL
  • Broken at 20,000' AGL
Conditions
  • Area Thunderstorm
From Jul-23 @ 04:00 - Jul-23 @ 18:00
Wind Visibility
Variable at 4 knots Greater than 6 miles
Clouds
  • Scattered at 3,500' AGL
  • Broken at 8,000' AGL